createdAt,value
2023-01-12T00:01:12.587Z,14.90
2023-01-12T00:05:25.740Z,16.00
2023-01-12T00:09:14.744Z,11.90
2023-01-12T00:13:03.958Z,15.00
2023-01-12T00:17:00.234Z,11.50
2023-01-12T00:20:50.650Z,10.30
2023-01-12T00:24:40.784Z,10.20
2023-01-12T00:28:31.384Z,11.40
2023-01-12T00:32:21.924Z,11.90
2023-01-12T00:36:11.260Z,11.50
2023-01-12T00:39:08.358Z,13.30
2023-01-12T00:42:38.228Z,14.10
2023-01-12T00:49:49.572Z,11.60
2023-01-12T00:53:37.915Z,12.00
2023-01-12T00:57:56.809Z,9.50
2023-01-12T01:01:48.992Z,8.20
2023-01-12T01:05:38.342Z,11.30
2023-01-12T01:09:27.710Z,9.40
2023-01-12T01:13:17.806Z,9.60
2023-01-12T01:28:15.198Z,7.40
2023-01-12T01:32:10.032Z,6.90
2023-01-12T01:43:56.187Z,10.60
2023-01-12T01:47:45.389Z,10.90
2023-01-12T01:59:59.046Z,14.50
2023-01-12T02:03:48.066Z,12.70
2023-01-12T02:07:37.640Z,6.30
2023-01-12T02:27:25.542Z,8.60
2023-01-12T02:31:08.872Z,9.80
2023-01-12T02:35:17.403Z,9.40
2023-01-12T02:51:35.930Z,10.70
2023-01-12T02:55:24.982Z,10.80
2023-01-12T02:59:14.049Z,10.70
2023-01-12T03:03:05.958Z,6.20
2023-01-12T03:06:57.797Z,5.10
2023-01-12T03:19:07.211Z,5.00
2023-01-12T03:22:58.065Z,5.00
2023-01-12T03:26:47.118Z,3.00
2023-01-12T03:39:00.069Z,4.20
2023-01-12T03:42:58.085Z,3.80
2023-01-12T03:58:49.865Z,7.00
2023-01-12T04:02:37.523Z,4.80
2023-01-12T04:10:31.787Z,4.50
2023-01-12T04:14:19.283Z,6.00
2023-01-12T04:18:07.271Z,7.40
2023-01-12T04:21:53.063Z,7.30
2023-01-12T04:25:40.915Z,7.90
2023-01-12T04:29:29.295Z,4.90
2023-01-12T04:37:32.677Z,7.20
2023-01-12T04:41:20.328Z,6.10
2023-01-12T04:45:09.413Z,9.10
2023-01-12T04:49:01.720Z,13.20
2023-01-12T04:52:50.162Z,16.80
2023-01-12T04:57:27.350Z,11.70
2023-01-12T05:01:06.041Z,17.70
2023-01-12T05:04:54.109Z,9.60
2023-01-12T05:08:39.546Z,9.50
2023-01-12T05:12:27.166Z,8.40
2023-01-12T05:24:11.750Z,6.10
2023-01-12T05:28:00.880Z,5.60
2023-01-12T05:31:49.910Z,6.50
2023-01-12T05:35:38.906Z,6.30
2023-01-12T05:39:21.524Z,5.20
2023-01-12T05:43:09.050Z,6.20
2023-01-12T06:06:34.346Z,11.90
2023-01-12T06:10:22.165Z,11.00
2023-01-12T06:14:16.526Z,11.80
2023-01-12T06:18:05.529Z,9.30
2023-01-12T06:21:54.256Z,10.00
2023-01-12T06:34:13.361Z,8.60
2023-01-12T06:38:01.038Z,7.00
2023-01-12T06:42:04.568Z,8.40
2023-01-12T06:45:52.419Z,7.60
2023-01-12T06:53:38.155Z,8.10
2023-01-12T06:57:27.199Z,7.80
2023-01-12T07:01:17.303Z,12.20
2023-01-12T07:05:06.447Z,9.20
2023-01-12T07:24:45.937Z,13.60
2023-01-12T07:28:33.860Z,7.90
2023-01-12T07:32:21.554Z,12.50
2023-01-12T07:36:09.349Z,12.20
2023-01-12T07:39:50.788Z,12.10
2023-01-12T07:47:55.882Z,12.30
2023-01-12T07:51:43.762Z,11.10
2023-01-12T07:55:31.263Z,9.50
2023-01-12T07:59:19.306Z,11.40
2023-01-12T08:03:07.043Z,7.90
2023-01-12T08:06:54.677Z,10.10
2023-01-12T08:10:43.478Z,8.90
2023-01-12T08:26:27.412Z,11.40
2023-01-12T08:34:25.948Z,13.00
2023-01-12T08:45:31.272Z,8.10
2023-01-12T08:57:19.806Z,8.20
2023-01-12T09:01:09.537Z,6.80
2023-01-12T09:05:02.378Z,7.60
2023-01-12T09:20:36.825Z,6.20
2023-01-12T09:24:26.185Z,6.10
2023-01-12T09:54:25.517Z,5.30
2023-01-12T09:57:28.309Z,7.70
2023-01-12T10:01:14.725Z,7.50
2023-01-12T10:04:56.887Z,5.20
2023-01-12T10:08:45.138Z,6.00
2023-01-12T10:11:40.156Z,9.40
2023-01-12T10:15:29.653Z,6.70
2023-01-12T10:19:19.574Z,7.00
2023-01-12T10:34:35.189Z,9.20
2023-01-12T10:37:13.799Z,7.20
2023-01-12T10:44:23.146Z,7.60
2023-01-12T11:00:03.387Z,8.20
2023-01-12T11:04:08.781Z,10.40
2023-01-12T11:08:04.204Z,8.30
2023-01-12T11:20:15.041Z,10.50
2023-01-12T11:24:10.579Z,7.40
2023-01-12T11:27:45.510Z,9.40
2023-01-12T11:31:43.377Z,8.60
2023-01-12T11:51:11.555Z,7.80
2023-01-12T11:54:37.946Z,9.60
2023-01-12T11:58:34.764Z,10.10
2023-01-12T12:02:21.312Z,8.90
2023-01-12T12:05:59.437Z,8.50
2023-01-12T12:21:08.483Z,7.10
2023-01-12T12:25:04.985Z,9.90
2023-01-12T12:28:50.744Z,9.00
2023-01-12T12:41:11.799Z,9.50
2023-01-12T12:45:07.193Z,6.00
2023-01-12T12:49:00.276Z,8.30
2023-01-12T12:52:55.443Z,8.20
2023-01-12T13:08:30.918Z,17.30
2023-01-12T13:12:38.370Z,10.80
2023-01-12T13:20:25.579Z,14.10
2023-01-12T13:24:19.063Z,11.10
2023-01-12T13:28:05.823Z,15.50
2023-01-12T13:32:11.543Z,23.10
2023-01-12T13:36:45.222Z,28.10
2023-01-12T13:40:55.860Z,26.40
2023-01-12T13:44:46.750Z,17.30
2023-01-12T13:56:38.503Z,15.10
2023-01-12T14:00:43.114Z,18.20
2023-01-12T14:04:30.571Z,18.00
2023-01-12T14:17:05.595Z,18.90
2023-01-12T14:20:54.981Z,16.30
2023-01-12T14:24:53.537Z,11.50
2023-01-12T14:28:57.719Z,12.40
2023-01-12T14:41:42.312Z,13.80
2023-01-12T14:45:31.300Z,16.50
2023-01-12T14:49:19.120Z,13.80
2023-01-12T14:53:14.873Z,19.80
2023-01-12T15:05:14.964Z,17.60
2023-01-12T15:09:03.813Z,17.00
2023-01-12T15:13:11.172Z,16.90
2023-01-12T15:16:59.580Z,16.60
2023-01-12T15:20:48.511Z,14.60
2023-01-12T15:24:37.286Z,15.20
2023-01-12T15:43:59.461Z,22.00
2023-01-12T15:47:48.474Z,28.20
2023-01-12T15:51:27.436Z,15.50
2023-01-12T15:55:16.591Z,14.80
2023-01-12T15:59:05.826Z,16.80
2023-01-12T16:02:55.019Z,13.20
2023-01-12T16:06:40.686Z,15.50
2023-01-12T16:10:31.963Z,15.70
2023-01-12T16:14:22.924Z,13.10
2023-01-12T16:30:04.510Z,16.10
2023-01-12T16:33:54.020Z,14.70
2023-01-12T16:37:42.927Z,11.90
2023-01-12T16:41:24.696Z,12.10
2023-01-12T16:45:13.727Z,11.60
2023-01-12T16:49:03.557Z,14.60
2023-01-12T16:52:52.683Z,13.80
2023-01-12T16:56:34.735Z,13.60
2023-01-12T17:00:23.894Z,13.00
2023-01-12T17:04:13.682Z,14.90
2023-01-12T17:12:08.725Z,11.20
2023-01-12T17:15:50.048Z,14.30
2023-01-12T17:19:38.174Z,12.70
2023-01-12T17:23:25.931Z,55.60
2023-01-12T17:27:13.746Z,26.40
2023-01-12T17:30:54.114Z,11.50
2023-01-12T17:34:42.028Z,34.70
2023-01-12T17:53:54.950Z,30.80
2023-01-12T17:57:44.544Z,24.30
2023-01-12T18:01:33.785Z,23.40
2023-01-12T18:05:15.962Z,15.40
2023-01-12T18:09:04.906Z,15.00
2023-01-12T18:12:52.882Z,14.40
2023-01-12T18:16:41.837Z,13.60
2023-01-12T18:20:30.903Z,15.90
2023-01-12T18:24:02.839Z,9.20
2023-01-12T18:27:41.784Z,9.50
2023-01-12T18:31:32.291Z,13.40
2023-01-12T18:34:24.358Z,14.00
2023-01-12T18:37:22.841Z,9.80
2023-01-12T19:03:44.083Z,16.70
2023-01-12T19:07:06.599Z,20.30
2023-01-12T19:10:38.830Z,13.00
2023-01-12T19:14:25.441Z,32.30
2023-01-12T19:21:27.884Z,11.30
2023-01-12T19:24:35.812Z,16.40
2023-01-12T19:28:16.073Z,20.70
2023-01-12T19:31:47.640Z,19.10
2023-01-12T19:35:35.424Z,12.30
2023-01-12T19:39:25.127Z,14.40
2023-01-12T19:43:11.596Z,12.90
2023-01-12T19:58:13.748Z,14.00
2023-01-12T20:01:55.923Z,19.50
2023-01-12T20:05:33.606Z,12.70
2023-01-12T20:09:05.655Z,14.90
2023-01-12T20:12:54.933Z,11.90
2023-01-12T20:16:47.285Z,11.20
2023-01-12T20:20:38.211Z,18.00
2023-01-12T20:24:26.585Z,17.60
2023-01-12T20:28:17.383Z,14.70
2023-01-12T20:54:54.415Z,10.50
2023-01-12T20:58:38.114Z,9.50
2023-01-12T21:02:21.339Z,8.60
2023-01-12T21:05:50.171Z,10.30
2023-01-12T21:09:19.179Z,6.40
2023-01-12T21:12:31.738Z,6.10
2023-01-12T21:16:03.639Z,8.60
2023-01-12T21:19:51.930Z,6.90
2023-01-12T21:23:41.012Z,5.10
2023-01-12T21:27:32.158Z,7.10
2023-01-12T21:31:00.049Z,8.20
2023-01-12T21:57:30.259Z,9.70
2023-01-12T22:01:18.173Z,14.10
2023-01-12T22:04:48.898Z,13.90
2023-01-12T22:08:08.950Z,17.60
2023-01-12T22:15:24.447Z,16.30
2023-01-12T22:19:12.886Z,17.40
2023-01-12T22:22:51.783Z,23.40
2023-01-12T22:26:43.867Z,17.00
2023-01-12T22:29:52.043Z,14.30
2023-01-12T22:36:57.865Z,15.10
2023-01-12T22:40:46.456Z,10.70
2023-01-12T22:44:34.193Z,9.70
2023-01-12T23:03:28.267Z,8.20
2023-01-12T23:07:06.056Z,8.70
2023-01-12T23:10:40.409Z,8.10
2023-01-12T23:14:29.477Z,7.00
2023-01-12T23:18:11.644Z,6.80
2023-01-12T23:21:59.124Z,5.90
2023-01-12T23:25:41.353Z,8.40
2023-01-12T23:29:36.290Z,8.10
2023-01-12T23:32:24.613Z,8.70
2023-01-12T23:35:53.696Z,6.80
2023-01-12T23:39:36.093Z,8.50
2023-01-12T23:43:20.736Z,6.90
2023-01-12T23:47:09.476Z,11.70
2023-01-12T23:51:00.786Z,10.40
